Time;durP1;ratioP1;P1;durP2;ratioP2;P2;SDS_P1;SDS_P2;PMS_P1;PMS_P2;Temp;Humidity;BMP_temperature;BMP_pressure;BME280_temperature;BME280_humidity;BME280_pressure;Samples;Min_cycle;Max_cycle;Signal;HPM_P1;HPM_P2
2021/08/07 00:00:18;;;;;;;4.93;1.02;;;16.20;68.60;;;;;;5093900;28;20027;-86
2021/08/07 00:02:44;;;;;;;4.97;1.00;;;16.30;68.30;;;;;;5089530;28;20024;-86
2021/08/07 00:05:10;;;;;;;4.50;1.00;;;16.20;69.10;;;;;;5128353;27;20019;-86
2021/08/07 00:07:36;;;;;;;3.42;0.90;;;16.20;70.00;;;;;;5094378;27;20039;-86
2021/08/07 00:10:03;;;;;;;4.35;1.05;;;16.20;69.20;;;;;;5112800;28;20031;-86
2021/08/07 00:12:29;;;;;;;2.75;0.90;;;16.30;69.80;;;;;;5103741;28;20016;-87
2021/08/07 00:14:54;;;;;;;5.55;0.90;;;16.20;69.60;;;;;;5085337;28;20030;-84
2021/08/07 00:17:20;;;;;;;5.70;1.10;;;16.20;70.20;;;;;;5112548;28;20395;-84
2021/08/07 00:19:45;;;;;;;6.72;1.05;;;16.20;70.20;;;;;;5111353;28;20055;-84
2021/08/07 00:22:11;;;;;;;4.90;1.02;;;16.20;71.30;;;;;;5112725;28;20044;-86
2021/08/07 00:24:37;;;;;;;3.05;0.93;;;16.20;70.90;;;;;;5102583;28;20070;-85
2021/08/07 00:27:03;;;;;;;3.97;0.80;;;16.20;70.70;;;;;;5087064;28;20391;-86
2021/08/07 00:29:34;;;;;;;4.07;1.10;;;16.20;70.60;;;;;;5111829;28;20055;-86
2021/08/07 00:32:00;;;;;;;7.38;1.20;;;16.20;70.80;;;;;;5078579;28;20041;-87
2021/08/07 00:34:26;;;;;;;6.95;1.30;;;16.30;71.20;;;;;;5112749;28;20023;-85
2021/08/07 00:36:52;;;;;;;4.57;0.95;;;16.20;71.00;;;;;;5093846;28;20024;-86
2021/08/07 00:39:17;;;;;;;5.68;1.15;;;16.20;70.80;;;;;;5112626;28;20494;-85
2021/08/07 00:41:43;;;;;;;2.92;0.88;;;16.20;71.20;;;;;;5112010;27;20054;-85
2021/08/07 00:44:08;;;;;;;3.85;0.90;;;16.10;71.50;;;;;;5093517;28;20480;-83
2021/08/07 00:46:34;;;;;;;2.58;0.70;;;16.10;73.80;;;;;;5095848;28;20034;-83
2021/08/07 00:49:00;;;;;;;5.57;1.30;;;16.10;71.50;;;;;;5089566;28;20028;-83
2021/08/07 00:51:25;;;;;;;8.45;1.27;;;16.10;72.20;;;;;;5104161;28;20039;-83
2021/08/07 00:53:51;;;;;;;4.25;0.77;;;16.20;73.60;;;;;;5082336;28;20016;-83
2021/08/07 00:56:16;;;;;;;5.90;0.90;;;16.30;73.00;;;;;;5098548;28;20027;-83
2021/08/07 00:58:42;;;;;;;5.00;0.50;;;16.30;72.70;;;;;;5111690;28;20031;-83
2021/08/07 01:01:14;;;;;;;5.07;0.90;;;16.40;72.90;;;;;;5093847;28;20131;-83
2021/08/07 01:03:45;;;;;;;6.68;1.00;;;16.40;72.70;;;;;;5093555;28;20027;-84
2021/08/07 01:06:23;;;;;;;5.15;1.02;;;16.40;72.10;;;;;;5093395;28;20031;-83
2021/08/07 01:09:19;;;;;;;2.50;0.88;;;16.40;71.90;;;;;;5111647;28;20103;-83
2021/08/07 01:12:02;;;;;;;5.38;1.30;;;16.40;71.90;;;;;;5127516;27;20043;-86
2021/08/07 01:14:42;;;;;;;7.80;1.15;;;16.40;71.60;;;;;;5093240;28;20043;-85
2021/08/07 01:17:12;;;;;;;4.82;1.10;;;16.40;71.60;;;;;;5078816;28;20036;-86
2021/08/07 01:19:57;;;;;;;4.13;0.80;;;16.40;72.10;;;;;;5111681;28;20107;-87
2021/08/07 01:22:32;;;;;;;5.43;0.60;;;16.40;73.10;;;;;;5096255;28;20036;-87
2021/08/07 01:25:04;;;;;;;2.55;0.70;;;16.40;72.30;;;;;;5091478;28;20030;-88
2021/08/07 01:27:32;;;;;;;3.83;0.80;;;16.40;72.40;;;;;;5092448;28;20498;-88
2021/08/07 01:29:59;;;;;;;5.28;0.90;;;16.50;73.10;;;;;;5111601;28;20127;-87
2021/08/07 01:32:31;;;;;;;3.72;0.60;;;16.50;74.10;;;;;;5111737;28;20049;-86
2021/08/07 01:34:59;;;;;;;3.97;0.80;;;16.50;72.40;;;;;;5108213;28;20034;-86
2021/08/07 01:37:25;;;;;;;3.75;0.90;;;16.60;73.40;;;;;;5089700;28;20103;-86
2021/08/07 01:39:55;;;;;;;3.58;0.70;;;16.60;72.90;;;;;;5093634;28;20053;-85
2021/08/07 01:42:22;;;;;;;5.10;1.17;;;16.60;72.30;;;;;;5096722;28;20031;-85
2021/08/07 01:44:47;;;;;;;7.22;0.80;;;16.60;73.00;;;;;;5097055;28;20057;-86
2021/08/07 01:47:24;;;;;;;5.13;0.70;;;16.60;73.80;;;;;;5116015;28;20012;-86
2021/08/07 01:50:07;;;;;;;2.42;0.70;;;16.60;73.70;;;;;;5114885;28;20119;-86
2021/08/07 01:52:36;;;;;;;2.90;0.90;;;16.50;72.90;;;;;;5095959;28;20058;-84
2021/08/07 01:55:09;;;;;;;3.08;0.70;;;16.60;73.80;;;;;;5114866;28;20391;-84
2021/08/07 01:57:42;;;;;;;3.15;0.80;;;16.60;73.30;;;;;;5096383;28;20034;-84
2021/08/07 02:00:12;;;;;;;5.15;0.95;;;16.60;73.80;;;;;;5115052;28;20114;-86
2021/08/07 02:02:39;;;;;;;5.28;1.00;;;16.60;74.00;;;;;;5114190;27;20030;-86
2021/08/07 02:05:06;;;;;;;4.00;1.00;;;16.60;74.90;;;;;;5098322;28;20035;-84
2021/08/07 02:07:31;;;;;;;5.13;1.10;;;16.60;74.90;;;;;;5096886;28;20024;-84
2021/08/07 02:09:57;;;;;;;3.13;0.68;;;16.60;73.70;;;;;;5114980;28;20028;-85
2021/08/07 02:12:23;;;;;;;7.13;1.17;;;16.60;74.80;;;;;;5091772;28;20031;-84
2021/08/07 02:14:51;;;;;;;3.55;0.70;;;16.60;73.90;;;;;;5112092;28;20023;-84
2021/08/07 02:17:18;;;;;;;3.47;0.80;;;16.60;74.60;;;;;;5083474;28;20040;-86
2021/08/07 02:19:43;;;;;;;5.00;0.73;;;16.70;74.80;;;;;;5114889;28;20512;-87
2021/08/07 02:22:10;;;;;;;3.83;0.70;;;16.70;75.20;;;;;;5101194;28;20099;-86
2021/08/07 02:24:36;;;;;;;4.03;0.90;;;16.80;74.50;;;;;;5112587;28;20042;-88
2021/08/07 02:27:02;;;;;;;3.70;0.93;;;16.80;74.90;;;;;;5095998;28;20031;-84
2021/08/07 02:29:30;;;;;;;2.30;0.60;;;16.80;75.20;;;;;;5114464;27;20066;-83
2021/08/07 02:31:56;;;;;;;4.55;0.85;;;16.80;76.10;;;;;;5080096;28;20153;-84
2021/08/07 02:34:22;;;;;;;5.22;1.38;;;16.80;76.70;;;;;;5096541;28;20625;-83
2021/08/07 02:36:50;;;;;;;3.33;0.70;;;16.80;75.10;;;;;;5103162;28;20024;-84
2021/08/07 02:39:15;;;;;;;3.72;1.08;;;16.70;75.10;;;;;;5084805;28;20066;-85
2021/08/07 02:41:41;;;;;;;5.28;0.95;;;16.70;75.90;;;;;;5084241;28;20062;-85
2021/08/07 02:44:07;;;;;;;2.55;0.73;;;16.70;76.20;;;;;;5081953;28;20034;-86
2021/08/07 02:46:35;;;;;;;4.70;0.88;;;16.70;76.20;;;;;;5098013;27;20052;-84
2021/08/07 02:49:00;;;;;;;3.67;0.90;;;16.70;76.20;;;;;;5113641;28;20365;-84
2021/08/07 02:51:27;;;;;;;6.45;1.30;;;16.70;76.20;;;;;;5094887;28;20437;-85
2021/08/07 02:53:53;;;;;;;4.50;0.60;;;16.70;76.50;;;;;;5095451;28;20023;-85
2021/08/07 02:56:19;;;;;;;3.63;0.70;;;16.70;76.70;;;;;;5095891;28;20395;-84
2021/08/07 02:58:45;;;;;;;3.63;0.95;;;16.70;76.70;;;;;;5095664;27;20077;-84
2021/08/07 03:01:11;;;;;;;3.47;0.75;;;16.80;76.20;;;;;;5114451;28;20098;-84
2021/08/07 03:03:36;;;;;;;4.93;0.82;;;16.70;76.90;;;;;;5095415;28;20503;-85
2021/08/07 03:06:02;;;;;;;7.55;1.27;;;16.70;76.80;;;;;;5113827;28;20032;-85
2021/08/07 03:08:28;;;;;;;4.85;0.70;;;16.70;77.20;;;;;;5113606;27;20031;-85
2021/08/07 03:10:54;;;;;;;3.67;0.70;;;16.70;76.60;;;;;;5113573;27;20111;-85
2021/08/07 03:13:19;;;;;;;2.50;0.73;;;16.80;77.10;;;;;;5114138;28;20103;-84
2021/08/07 03:15:45;;;;;;;2.85;0.70;;;16.80;77.10;;;;;;5113392;27;20047;-84
2021/08/07 03:18:11;;;;;;;5.57;0.80;;;16.70;76.30;;;;;;5095300;28;20080;-84
2021/08/07 03:20:37;;;;;;;5.80;1.08;;;16.70;76.80;;;;;;5095176;28;20024;-87
2021/08/07 03:23:08;;;;;;;4.28;0.75;;;16.70;77.70;;;;;;5113347;27;20095;-87
2021/08/07 03:25:34;;;;;;;4.50;0.95;;;16.70;78.70;;;;;;5113796;28;20028;-87
2021/08/07 03:28:01;;;;;;;4.50;0.70;;;16.70;77.40;;;;;;5101073;28;20016;-87
2021/08/07 03:30:27;;;;;;;3.17;0.60;;;16.70;78.70;;;;;;5083372;28;20040;-86
2021/08/07 03:32:53;;;;;;;3.45;0.70;;;16.60;76.70;;;;;;5105165;28;20024;-87
2021/08/07 03:35:19;;;;;;;3.55;0.60;;;16.60;79.10;;;;;;5094904;28;20034;-86
2021/08/07 03:37:45;;;;;;;3.05;0.65;;;16.60;78.10;;;;;;5096387;27;20028;-85
2021/08/07 03:40:11;;;;;;;1.98;0.57;;;16.60;78.60;;;;;;5113568;28;20102;-86
2021/08/07 03:42:37;;;;;;;4.22;0.98;;;16.40;77.90;;;;;;5094820;28;20034;-85
2021/08/07 03:45:05;;;;;;;2.45;0.60;;;16.40;78.60;;;;;;5090541;28;20036;-85
2021/08/07 03:47:30;;;;;;;2.85;0.60;;;16.30;78.90;;;;;;5094266;28;20012;-86
2021/08/07 03:49:56;;;;;;;1.42;0.40;;;16.40;79.00;;;;;;5078533;28;20526;-85
2021/08/07 03:52:22;;;;;;;2.17;0.60;;;16.40;79.00;;;;;;5095066;28;20020;-85
2021/08/07 03:54:47;;;;;;;1.80;0.47;;;16.40;79.00;;;;;;5094561;28;20118;-85
2021/08/07 03:57:13;;;;;;;1.65;0.40;;;16.40;79.70;;;;;;5112792;27;20036;-86
2021/08/07 03:59:38;;;;;;;2.17;0.50;;;16.40;78.50;;;;;;5111354;27;20028;-86
2021/08/07 04:02:04;;;;;;;2.35;0.50;;;16.40;79.40;;;;;;5079549;28;20042;-86
2021/08/07 04:04:29;;;;;;;1.50;0.40;;;16.30;79.50;;;;;;5078308;28;20082;-86
2021/08/07 04:06:55;;;;;;;1.98;0.40;;;16.40;79.90;;;;;;5112661;28;20072;-87
2021/08/07 04:09:21;;;;;;;1.85;0.55;;;16.40;82.30;;;;;;5090138;28;20035;-87
2021/08/07 04:11:46;;;;;;;4.28;0.70;;;16.40;80.50;;;;;;5112499;28;20031;-87
2021/08/07 04:14:12;;;;;;;1.10;0.38;;;16.50;79.70;;;;;;5094214;28;20020;-87
2021/08/07 04:16:38;;;;;;;1.63;0.40;;;16.50;80.10;;;;;;5096124;28;20103;-87
2021/08/07 04:19:04;;;;;;;2.22;0.40;;;16.50;79.30;;;;;;5094676;28;20027;-87
2021/08/07 04:21:30;;;;;;;1.85;0.40;;;16.50;79.60;;;;;;5103960;27;20034;-87
2021/08/07 04:23:55;;;;;;;2.47;0.50;;;16.60;79.90;;;;;;5086393;28;20055;-87
2021/08/07 04:26:21;;;;;;;5.50;0.60;;;16.60;79.60;;;;;;5094712;28;20024;-86
2021/08/07 04:28:48;;;;;;;2.75;0.50;;;16.60;80.60;;;;;;5094502;27;20034;-87
2021/08/07 04:31:13;;;;;;;0.77;0.25;;;16.60;80.80;;;;;;5094815;28;20035;-87
2021/08/07 04:33:39;;;;;;;2.03;0.52;;;16.60;79.60;;;;;;5112053;28;20084;-87
2021/08/07 04:36:05;;;;;;;1.80;0.47;;;16.70;80.40;;;;;;5106678;28;20043;-84
2021/08/07 04:38:31;;;;;;;0.90;0.30;;;16.60;79.70;;;;;;5093392;28;20107;-84
2021/08/07 04:40:57;;;;;;;2.42;0.95;;;16.70;79.90;;;;;;5112478;28;20039;-85
2021/08/07 04:43:23;;;;;;;1.52;0.40;;;16.70;80.50;;;;;;5112797;28;20071;-84
2021/08/07 04:45:48;;;;;;;1.73;0.45;;;16.70;79.80;;;;;;5112008;28;20034;-84
2021/08/07 04:48:14;;;;;;;1.95;0.60;;;16.70;79.90;;;;;;5106033;28;20031;-84
2021/08/07 04:50:40;;;;;;;1.95;0.50;;;16.70;80.00;;;;;;5083113;28;20084;-84
2021/08/07 04:53:06;;;;;;;2.35;0.60;;;16.70;79.80;;;;;;5092003;28;20099;-84
2021/08/07 04:55:34;;;;;;;1.92;0.50;;;16.80;79.70;;;;;;5101632;28;20032;-85
2021/08/07 04:57:59;;;;;;;3.13;0.43;;;16.70;80.10;;;;;;5101007;28;20038;-84
2021/08/07 05:00:25;;;;;;;1.15;0.40;;;16.80;80.10;;;;;;5090111;28;20032;-84
2021/08/07 05:02:51;;;;;;;3.35;0.50;;;16.70;80.50;;;;;;5085103;28;20020;-85
2021/08/07 05:05:17;;;;;;;2.22;0.47;;;16.80;79.80;;;;;;5093290;28;20475;-84
2021/08/07 05:07:44;;;;;;;2.60;0.60;;;16.80;79.50;;;;;;5093451;28;20043;-84
2021/08/07 05:10:11;;;;;;;1.92;0.45;;;16.80;80.50;;;;;;5112146;28;20046;-87
2021/08/07 05:12:38;;;;;;;1.98;0.63;;;16.70;80.50;;;;;;5102363;28;20039;-88
2021/08/07 05:15:04;;;;;;;5.13;0.50;;;16.70;79.70;;;;;;5087393;28;20035;-87
2021/08/07 05:17:30;;;;;;;2.88;0.55;;;16.60;80.80;;;;;;5115413;28;20016;-87
2021/08/07 05:19:56;;;;;;;3.90;0.93;;;16.60;80.00;;;;;;5097580;28;20274;-85
2021/08/07 05:22:23;;;;;;;1.67;0.43;;;16.50;80.60;;;;;;5100528;28;20074;-86
2021/08/07 05:24:49;;;;;;;2.40;0.50;;;16.50;80.40;;;;;;5086152;28;20051;-86
2021/08/07 05:27:15;;;;;;;4.47;1.02;;;16.40;80.20;;;;;;5085766;28;20024;-86
2021/08/07 05:29:40;;;;;;;2.13;0.40;;;16.40;80.10;;;;;;5087362;28;20091;-87
2021/08/07 05:32:06;;;;;;;2.70;0.70;;;16.40;81.40;;;;;;5115745;27;20020;-87
2021/08/07 05:34:32;;;;;;;3.22;0.52;;;16.40;80.70;;;;;;5097282;28;20085;-84
2021/08/07 05:36:58;;;;;;;2.38;0.60;;;16.40;80.70;;;;;;5103359;28;20107;-85
2021/08/07 05:39:23;;;;;;;2.67;0.60;;;16.50;81.30;;;;;;5111585;28;20023;-84
2021/08/07 05:41:49;;;;;;;2.05;0.50;;;16.50;80.60;;;;;;5096990;28;20027;-85
2021/08/07 05:44:15;;;;;;;3.10;0.60;;;16.50;81.80;;;;;;5115374;28;20097;-87
2021/08/07 05:46:40;;;;;;;5.15;0.77;;;16.60;81.50;;;;;;5081126;28;20055;-86
2021/08/07 05:49:06;;;;;;;3.95;0.75;;;16.70;81.10;;;;;;5098154;28;20509;-86
2021/08/07 05:51:34;;;;;;;2.38;0.57;;;16.70;81.30;;;;;;5097251;28;20480;-85
2021/08/07 05:54:01;;;;;;;2.95;0.70;;;16.80;81.10;;;;;;5127188;27;20028;-87
2021/08/07 05:56:26;;;;;;;2.17;0.40;;;16.80;81.00;;;;;;5085754;28;20027;-86
2021/08/07 05:58:52;;;;;;;1.48;0.40;;;16.90;81.00;;;;;;5097502;28;20031;-87
2021/08/07 06:01:18;;;;;;;1.10;0.40;;;16.90;80.80;;;;;;5098035;28;20037;-85
2021/08/07 06:03:43;;;;;;;2.83;0.40;;;16.90;80.70;;;;;;5096877;28;20051;-86
2021/08/07 06:06:09;;;;;;;1.48;0.47;;;16.90;81.10;;;;;;5127308;27;20380;-87
2021/08/07 06:08:34;;;;;;;3.10;0.50;;;16.90;81.40;;;;;;5097523;28;20036;-86
2021/08/07 06:11:00;;;;;;;1.38;0.40;;;17.00;81.70;;;;;;5115639;28;20081;-85
2021/08/07 06:13:26;;;;;;;2.38;0.50;;;17.10;80.90;;;;;;5097447;28;20497;-86
2021/08/07 06:15:52;;;;;;;2.72;0.50;;;17.10;80.70;;;;;;5084138;28;20044;-85
2021/08/07 06:18:18;;;;;;;1.73;0.50;;;17.10;80.30;;;;;;5110813;28;20028;-85
2021/08/07 06:20:44;;;;;;;2.20;0.63;;;17.10;80.30;;;;;;5115170;28;20417;-86
2021/08/07 06:23:10;;;;;;;2.22;0.60;;;17.10;80.50;;;;;;5114849;28;20069;-85
2021/08/07 06:25:35;;;;;;;2.00;0.60;;;17.30;81.90;;;;;;5098376;28;20028;-86
2021/08/07 06:28:05;;;;;;;1.48;0.50;;;17.50;81.40;;;;;;5115208;28;20023;-86
2021/08/07 06:30:31;;;;;;;2.72;0.45;;;17.70;81.20;;;;;;5105894;28;20040;-85
2021/08/07 06:32:57;;;;;;;2.75;0.50;;;17.90;80.30;;;;;;5086643;28;20111;-85
2021/08/07 06:35:23;;;;;;;2.65;0.50;;;18.00;80.20;;;;;;5096240;28;20114;-85
2021/08/07 06:37:49;;;;;;;2.05;0.50;;;18.10;80.40;;;;;;5096739;28;20043;-85
2021/08/07 06:40:16;;;;;;;3.67;0.70;;;18.20;80.00;;;;;;5115468;27;20574;-85
2021/08/07 06:42:42;;;;;;;2.38;0.60;;;18.20;79.10;;;;;;5098038;28;20046;-84
2021/08/07 06:45:09;;;;;;;2.40;0.70;;;18.30;79.20;;;;;;5096750;28;20495;-84
2021/08/07 06:47:35;;;;;;;2.42;0.50;;;18.20;78.90;;;;;;5114232;27;20020;-85
2021/08/07 06:50:00;;;;;;;3.70;0.70;;;18.20;78.80;;;;;;5097284;28;20046;-86
2021/08/07 06:52:26;;;;;;;2.38;0.88;;;18.10;80.00;;;;;;5096815;28;20054;-84
2021/08/07 06:54:52;;;;;;;3.30;0.90;;;18.10;78.30;;;;;;5084390;28;20480;-86
2021/08/07 06:57:19;;;;;;;3.28;0.70;;;18.00;79.10;;;;;;5103426;28;20358;-87
2021/08/07 06:59:44;;;;;;;5.05;0.95;;;18.00;79.50;;;;;;5087557;28;20048;-84
2021/08/07 07:02:10;;;;;;;4.65;1.23;;;18.00;79.30;;;;;;5113887;28;20099;-84
2021/08/07 07:04:36;;;;;;;5.70;0.82;;;18.00;80.20;;;;;;5097816;28;20039;-84
2021/08/07 07:07:03;;;;;;;4.05;1.00;;;18.00;79.40;;;;;;5096486;27;20031;-87
2021/08/07 07:09:29;;;;;;;3.05;0.60;;;18.10;80.20;;;;;;5125979;27;20555;-91
2021/08/07 07:11:54;;;;;;;5.97;1.00;;;18.10;81.00;;;;;;5119641;28;20080;-93
2021/08/07 07:14:20;;;;;;;3.30;0.80;;;18.20;80.50;;;;;;5099508;28;20114;-88
2021/08/07 07:16:47;;;;;;;4.25;0.93;;;18.30;81.00;;;;;;5098559;28;20122;-94
2021/08/07 07:19:13;;;;;;;2.95;0.57;;;18.50;80.30;;;;;;5099527;28;20043;-93
2021/08/07 07:21:39;;;;;;;4.05;0.98;;;18.50;79.80;;;;;;5092201;28;20055;-93
2021/08/07 07:24:05;;;;;;;5.00;0.90;;;18.60;79.20;;;;;;5115339;28;20191;-92
2021/08/07 07:26:31;;;;;;;4.55;0.85;;;18.60;78.90;;;;;;5091530;28;20024;-91
2021/08/07 07:28:57;;;;;;;4.47;1.00;;;18.50;77.80;;;;;;5113394;28;20496;-84
2021/08/07 07:31:24;;;;;;;3.35;0.80;;;18.30;78.30;;;;;;5102779;28;20032;-88
2021/08/07 07:33:50;;;;;;;6.30;1.38;;;18.30;78.90;;;;;;5114335;28;20014;-89
2021/08/07 07:36:16;;;;;;;4.85;1.15;;;18.20;79.10;;;;;;5098048;28;20122;-88
2021/08/07 07:38:42;;;;;;;3.42;0.80;;;18.30;79.50;;;;;;5116596;28;20015;-80
2021/08/07 07:41:08;;;;;;;3.20;1.13;;;18.40;79.50;;;;;;5094840;28;20403;-81
2021/08/07 07:43:34;;;;;;;3.42;0.93;;;18.50;79.30;;;;;;5110287;28;20031;-80
2021/08/07 07:45:59;;;;;;;4.43;0.90;;;18.50;78.70;;;;;;5119468;27;20026;-78
2021/08/07 07:48:25;;;;;;;6.25;0.90;;;18.50;78.60;;;;;;5107267;27;20031;-79
2021/08/07 07:50:51;;;;;;;7.47;1.13;;;18.50;78.20;;;;;;5105837;27;20043;-85
2021/08/07 07:53:18;;;;;;;4.68;0.90;;;18.40;76.80;;;;;;5124925;27;20015;-82
2021/08/07 07:55:44;;;;;;;7.32;1.40;;;18.50;78.10;;;;;;5107812;27;20015;-83
2021/08/07 07:58:10;;;;;;;4.75;1.15;;;18.40;77.90;;;;;;5127793;27;20091;-83
2021/08/07 08:00:35;;;;;;;4.32;1.10;;;18.30;78.00;;;;;;5105975;27;20080;-79
2021/08/07 08:03:01;;;;;;;6.22;1.05;;;18.30;77.80;;;;;;5122203;27;20028;-80
2021/08/07 08:05:27;;;;;;;5.28;1.17;;;18.20;78.30;;;;;;5100050;28;20102;-79
2021/08/07 08:07:53;;;;;;;4.95;1.23;;;18.30;79.20;;;;;;5110563;27;20051;-78
2021/08/07 08:10:18;;;;;;;3.95;1.00;;;18.50;79.30;;;;;;5114396;27;20036;-79
2021/08/07 08:12:44;;;;;;;3.90;1.00;;;18.60;78.70;;;;;;5113692;27;20099;-85
2021/08/07 08:15:11;;;;;;;5.72;1.15;;;18.70;77.30;;;;;;5106755;27;20043;-89
2021/08/07 08:17:37;;;;;;;5.97;1.10;;;18.60;76.50;;;;;;5102991;27;20055;-82
2021/08/07 08:20:05;;;;;;;5.75;1.10;;;18.50;76.60;;;;;;5111438;28;20065;-79
2021/08/07 08:22:30;;;;;;;5.97;0.90;;;18.50;77.70;;;;;;5111813;28;20020;-78
2021/08/07 08:24:56;;;;;;;5.50;0.95;;;18.50;77.20;;;;;;5121242;27;20034;-80
2021/08/07 08:27:22;;;;;;;5.53;1.20;;;18.60;76.80;;;;;;5116506;27;20028;-78
2021/08/07 08:29:48;;;;;;;5.95;1.25;;;18.70;77.60;;;;;;5110534;28;20039;-78
2021/08/07 08:32:14;;;;;;;4.53;1.25;;;18.90;77.30;;;;;;5110883;28;20027;-78
2021/08/07 08:34:40;;;;;;;2.83;0.88;;;19.00;76.20;;;;;;5110613;28;20693;-79
2021/08/07 08:37:05;;;;;;;6.55;1.13;;;19.00;75.00;;;;;;5112283;28;20617;-80
2021/08/07 08:39:32;;;;;;;4.90;0.93;;;19.00;74.80;;;;;;5108705;27;20038;-77
2021/08/07 08:41:58;;;;;;;6.53;1.05;;;18.90;74.70;;;;;;5109989;28;20069;-83
2021/08/07 08:44:24;;;;;;;5.53;1.35;;;18.80;75.00;;;;;;5126080;27;20114;-81
2021/08/07 08:46:51;;;;;;;3.90;0.80;;;18.60;75.50;;;;;;5111755;28;20102;-89
2021/08/07 08:49:17;;;;;;;4.10;0.80;;;18.50;77.20;;;;;;5093624;28;20020;-89
2021/08/07 08:51:47;;;;;;;2.08;0.60;;;18.50;77.50;;;;;;5110773;28;20069;-87
2021/08/07 08:54:16;;;;;;;8.40;1.30;;;18.40;77.30;;;;;;5116952;27;20016;-85
2021/08/07 08:56:41;;;;;;;6.97;1.02;;;18.30;76.40;;;;;;5117847;27;20092;-82
2021/08/07 08:59:09;;;;;;;5.40;1.00;;;18.30;76.40;;;;;;5126560;27;20539;-90
2021/08/07 09:01:36;;;;;;;4.25;1.10;;;18.40;76.80;;;;;;5113378;28;20514;-88
2021/08/07 09:04:04;;;;;;;4.13;1.10;;;18.50;75.60;;;;;;5100548;28;20036;-92
2021/08/07 09:06:33;;;;;;;3.67;1.00;;;18.60;76.80;;;;;;5100017;28;20166;-82
2021/08/07 09:09:05;;;;;;;3.22;0.85;;;18.70;75.50;;;;;;5108181;28;20076;-86
2021/08/07 09:11:31;;;;;;;4.10;0.90;;;18.60;74.50;;;;;;5123022;27;20437;-79
2021/08/07 09:14:16;;;;;;;6.47;1.23;;;18.80;76.10;;;;;;5093592;28;20028;-84
2021/08/07 09:17:04;;;;;;;3.38;0.80;;;19.00;75.00;;;;;;5110478;28;20084;-86
2021/08/07 09:19:39;;;;;;;4.32;0.90;;;19.10;72.90;;;;;;5106006;28;20068;-84
2021/08/07 09:22:09;;;;;;;4.20;0.77;;;19.00;71.70;;;;;;5110086;28;20118;-89
2021/08/07 09:25:08;;;;;;;2.78;0.90;;;19.20;71.40;;;;;;5112359;28;20035;-88
2021/08/07 09:27:35;;;;;;;4.30;0.77;;;19.30;71.20;;;;;;5131243;27;20019;-92
2021/08/07 09:30:04;;;;;;;4.75;0.80;;;19.30;69.80;;;;;;5099496;28;20735;-88
2021/08/07 09:32:56;;;;;;;3.67;0.65;;;19.20;68.80;;;;;;5104635;28;20034;-88
2021/08/07 09:35:31;;;;;;;2.55;0.55;;;18.90;68.50;;;;;;5112340;28;20040;-88
2021/08/07 09:38:19;;;;;;;5.63;1.00;;;18.80;69.30;;;;;;5094164;28;20525;-88
2021/08/07 09:40:52;;;;;;;2.25;0.73;;;18.80;69.80;;;;;;5091534;28;20023;-84
2021/08/07 09:43:19;;;;;;;;;;;19.00;69.50;;;;;;5093637;28;20032;-83
2021/08/07 09:46:01;;;;;;;2.70;0.70;;;19.20;68.60;;;;;;5101359;28;19958;-84
2021/08/07 09:48:31;;;;;;;1.77;0.60;;;19.40;66.90;;;;;;5087949;28;20105;-88
2021/08/07 09:50:57;;;;;;;4.22;0.70;;;19.40;66.20;;;;;;5104136;28;20035;-89
2021/08/07 09:53:27;;;;;;;2.95;0.63;;;19.40;65.80;;;;;;5112084;28;20016;-89
2021/08/07 09:56:04;;;;;;;2.42;0.55;;;19.40;66.80;;;;;;5093042;28;20028;-86
2021/08/07 09:58:30;;;;;;;2.20;0.60;;;19.60;66.90;;;;;;5108410;28;20035;-87
2021/08/07 10:00:57;;;;;;;3.00;0.85;;;19.70;66.30;;;;;;5112006;28;20106;-86
2021/08/07 10:03:26;;;;;;;1.98;0.60;;;19.80;64.80;;;;;;5115620;27;20024;-88
2021/08/07 10:05:52;;;;;;;2.72;0.60;;;19.70;62.90;;;;;;5096328;28;20023;-86
2021/08/07 10:08:18;;;;;;;2.38;0.50;;;19.60;63.60;;;;;;5114922;28;20028;-84
2021/08/07 10:10:45;;;;;;;1.35;0.50;;;19.40;64.00;;;;;;5108269;28;20468;-84
2021/08/07 10:13:11;;;;;;;2.15;0.50;;;19.40;64.40;;;;;;5103275;28;20024;-85
2021/08/07 10:15:39;;;;;;;1.13;0.47;;;19.50;64.90;;;;;;5113509;27;20048;-85
2021/08/07 10:18:06;;;;;;;1.95;0.50;;;19.90;64.50;;;;;;5110019;28;20034;-82
2021/08/07 10:20:34;;;;;;;1.73;0.40;;;20.20;63.10;;;;;;5103542;28;20028;-85
2021/08/07 10:23:01;;;;;;;1.52;0.50;;;20.30;62.00;;;;;;5114871;28;20069;-84
2021/08/07 10:25:27;;;;;;;1.38;0.50;;;20.20;62.80;;;;;;5115226;28;20395;-89
2021/08/07 10:27:58;;;;;;;2.80;0.70;;;20.20;62.40;;;;;;5103073;28;20032;-81
2021/08/07 10:30:24;;;;;;;1.45;0.43;;;20.30;64.60;;;;;;5107290;28;20059;-80
2021/08/07 10:32:53;;;;;;;1.23;0.50;;;20.30;63.10;;;;;;5091599;28;20036;-84
2021/08/07 10:35:19;;;;;;;0.85;0.43;;;20.40;63.90;;;;;;5115648;27;20375;-85
2021/08/07 10:37:45;;;;;;;2.10;0.45;;;20.30;63.00;;;;;;5114265;28;20472;-85
2021/08/07 10:40:12;;;;;;;1.45;0.40;;;20.30;62.00;;;;;;5100757;28;20492;-82
2021/08/07 10:42:38;;;;;;;1.98;0.57;;;20.30;61.60;;;;;;5112290;28;20024;-82
2021/08/07 10:45:09;;;;;;;1.58;0.35;;;20.10;60.60;;;;;;5091603;28;20484;-84
2021/08/07 10:47:40;;;;;;;1.58;0.50;;;20.00;62.00;;;;;;5113640;28;20023;-81
2021/08/07 10:50:24;;;;;;;2.38;0.47;;;20.00;59.70;;;;;;5099550;28;20035;-83
2021/08/07 10:52:53;;;;;;;0.63;0.32;;;20.00;60.10;;;;;;5113756;28;20027;-86
2021/08/07 10:55:42;;;;;;;1.10;0.30;;;20.10;59.60;;;;;;5115019;28;20034;-87
2021/08/07 10:58:53;;;;;;;0.68;0.40;;;20.10;59.10;;;;;;5111334;28;20026;-84
2021/08/07 11:01:24;;;;;;;1.67;0.50;;;20.00;60.00;;;;;;5074211;28;20028;-85
2021/08/07 11:04:06;;;;;;;1.20;0.50;;;20.00;62.10;;;;;;5113455;28;20046;-86
2021/08/07 11:06:43;;;;;;;1.15;0.60;;;20.10;60.70;;;;;;5115280;28;20032;-84
2021/08/07 11:09:34;;;;;;;0.60;0.30;;;20.20;59.50;;;;;;5095492;28;20105;-88
2021/08/07 11:12:06;;;;;;;1.98;0.50;;;20.30;60.80;;;;;;5082855;28;20404;-89
2021/08/07 11:14:34;;;;;;;1.92;0.30;;;20.30;60.20;;;;;;5104051;27;20032;-87
2021/08/07 11:17:06;;;;;;;1.88;0.40;;;20.60;59.70;;;;;;5073915;28;20040;-88
2021/08/07 11:19:50;;;;;;;0.68;0.30;;;20.70;58.60;;;;;;5073154;28;20066;-87
2021/08/07 11:22:31;;;;;;;1.65;0.50;;;20.80;57.60;;;;;;5074253;28;20074;-87
2021/08/07 11:24:58;;;;;;;1.75;0.40;;;20.90;55.80;;;;;;5057918;28;20037;-89
2021/08/07 11:30:20;;;;;;;1.42;0.50;;;21.30;58.00;;;;;;5074502;28;20135;-89
2021/08/07 11:32:58;;;;;;;2.33;0.60;;;21.60;55.50;;;;;;5074757;28;20017;-92
2021/08/07 11:38:13;;;;;;;0.90;0.50;;;21.40;55.30;;;;;;5071648;28;20523;-86
2021/08/07 11:41:00;;;;;;;2.58;0.50;;;21.50;54.40;;;;;;5071264;28;20415;-90
2021/08/07 11:43:41;;;;;;;1.42;0.40;;;21.30;54.90;;;;;;5054687;28;20029;-92
2021/08/07 11:46:12;;;;;;;0.93;0.32;;;21.50;55.70;;;;;;5066233;28;20120;-81
2021/08/07 11:48:40;;;;;;;1.40;0.35;;;21.50;55.10;;;;;;5073224;28;20025;-85
2021/08/07 11:51:09;;;;;;;0.90;0.40;;;21.50;55.00;;;;;;5072989;28;20047;-85
2021/08/07 11:53:38;;;;;;;1.23;0.45;;;21.50;55.10;;;;;;5072742;28;20020;-90
2021/08/07 11:56:09;;;;;;;1.13;0.50;;;21.40;54.50;;;;;;5074328;28;20024;-89
2021/08/07 11:58:47;;;;;;;0.50;0.40;;;21.40;55.50;;;;;;5074021;28;20504;-91
2021/08/07 12:01:13;;;;;;;1.23;0.40;;;21.80;54.10;;;;;;5072731;28;20089;-90
2021/08/07 12:03:40;;;;;;;1.60;0.52;;;21.80;53.60;;;;;;5062729;28;20446;-90
2021/08/07 12:06:05;;;;;;;1.63;0.45;;;21.80;53.30;;;;;;5065835;28;20028;-88
2021/08/07 12:08:32;;;;;;;1.05;0.30;;;21.90;51.50;;;;;;5069494;28;20400;-86
2021/08/07 12:11:03;;;;;;;2.08;0.43;;;21.70;51.70;;;;;;5060934;28;20449;-87
2021/08/07 12:13:32;;;;;;;1.35;0.57;;;21.50;52.80;;;;;;5058264;28;20116;-86
2021/08/07 12:16:02;;;;;;;1.25;0.50;;;21.20;53.90;;;;;;5070170;28;20060;-82
2021/08/07 12:18:40;;;;;;;2.08;0.57;;;20.90;54.70;;;;;;5071738;28;20028;-90
2021/08/07 12:21:06;;;;;;;0.75;0.40;;;20.80;55.60;;;;;;5070303;28;20048;-87
2021/08/07 12:23:45;;;;;;;3.22;0.70;;;20.90;56.20;;;;;;5071699;28;20507;-87
2021/08/07 12:26:12;;;;;;;2.33;0.70;;;21.10;55.40;;;;;;5070742;28;20033;-87
2021/08/07 12:28:38;;;;;;;1.35;0.45;;;21.20;55.70;;;;;;5071465;28;20039;-88
2021/08/07 12:31:04;;;;;;;0.98;0.40;;;21.50;55.80;;;;;;5058973;28;20135;-87
2021/08/07 12:33:37;;;;;;;0.98;0.40;;;21.60;54.60;;;;;;5066761;28;20020;-87
2021/08/07 12:36:17;;;;;;;1.42;0.50;;;21.70;53.10;;;;;;5066321;28;20022;-87
2021/08/07 12:38:48;;;;;;;1.52;0.63;;;21.90;53.40;;;;;;5058018;28;20032;-88
2021/08/07 12:41:16;;;;;;;2.08;0.55;;;22.20;55.00;;;;;;5057885;28;20028;-87
2021/08/07 12:43:42;;;;;;;1.20;0.60;;;22.30;53.80;;;;;;5054907;28;20017;-87
2021/08/07 12:46:10;;;;;;;1.30;0.40;;;22.20;54.30;;;;;;5058381;28;20040;-87
2021/08/07 12:48:52;;;;;;;1.30;0.52;;;22.20;55.00;;;;;;5058460;28;20033;-86
2021/08/07 12:51:27;;;;;;;1.33;0.60;;;22.00;54.70;;;;;;5064602;28;20036;-86
2021/08/07 12:53:54;;;;;;;1.48;0.57;;;21.90;55.50;;;;;;5070963;28;20028;-87
2021/08/07 12:56:21;;;;;;;2.13;0.65;;;21.90;55.80;;;;;;5070917;28;20530;-87
2021/08/07 12:59:05;;;;;;;2.08;0.60;;;21.70;55.90;;;;;;5071366;28;20497;-86